Главная страница
METAR-TAF:

METAR-TAF

Аэропорты :

Fort Good Hope, Северо-Западные Территории, Канада

широта: 66-16N, долгота: 128-37W, высота над уровнем моря: 60 м

Текущие метеонаблюдения

Эта сводка был подготовлена 5 часа и 39 минут назад, в 23:00 UTC
Ветер 7 Узел от западный
Температура 9°C
Влажность 37%
Давление 1015 hPa
Видимость: 32.2 км
небольшая облачность на высоте 5600 фута
небольшая облачность на высоте 25000 фута

METAR: CYGH 262300Z 28007KT 20SM FEW056 FEW250 09/M05 A2998 RMK SC1CI2 SC TR 9.2/-0.3/0.0/35 SNW CVR/MUCH LOOSE/LAST STFD OBS/NXT 271300UTC SLP158

Время: 22:39 (04:39 UTC)

Прогноз

Эта сводка был подготовлена 11 часа и 1 минут назад, в 17:38 UTC
Прогноз действительный с 26-го 18 UTC до 26-го 23 UTC
Ветер 5 Узел от южный-юго-западный
Видимость: 10 км
небольшая облачность на высоте 8000 фута

TAF: CYGH 261738Z 2618/2623 20005KT P6SM FEW080 RMK NXT FCST WILL BE ISSUED AT 271415Z

Метеонаблюдения и прогнозы для более 4000 аэропортов (сводки METAR и TAF).

Имеющиеся станции представлены на карте желтыми и красными точками.

Чтобы увидеть название станции, наведите на нее мышь.

Затем щелкните, чтобы увидеть метеонаблюдения и метеопрогнозы.

Управление картой: чтобы увеличить масштаб, щелкните зеленые кнопки с черным крестиком; чтобы уменьшить масштаб, щелкните зеленую кнопку с тире; для просмотра соседних карт щелкайте зеленые стрелки.


METAR-TAF: